createdAt,value
2023-12-23T00:00:46.830Z,6.21
2023-12-23T00:03:26.967Z,6.20
2023-12-23T00:06:07.322Z,6.21
2023-12-23T00:08:50.463Z,6.22
2023-12-23T00:11:30.003Z,6.23
2023-12-23T00:14:10.009Z,6.22
2023-12-23T00:16:49.643Z,6.23
2023-12-23T00:19:29.928Z,6.22
2023-12-23T00:22:09.455Z,6.25
2023-12-23T00:24:49.109Z,6.25
2023-12-23T00:27:30.126Z,6.26
2023-12-23T00:30:10.658Z,6.27
2023-12-23T00:32:52.458Z,6.27
2023-12-23T00:35:31.878Z,6.27
2023-12-23T00:38:11.597Z,6.29
2023-12-23T00:40:51.611Z,6.26
2023-12-23T00:43:34.795Z,6.26
2023-12-23T00:46:14.807Z,6.25
2023-12-23T00:48:54.409Z,6.22
2023-12-23T00:51:33.882Z,6.23
2023-12-23T00:54:14.032Z,6.25
2023-12-23T00:56:53.819Z,6.26
2023-12-23T00:59:33.560Z,6.25
2023-12-23T01:02:13.321Z,6.25
2023-12-23T01:04:55.600Z,6.28
2023-12-23T01:07:35.584Z,6.29
2023-12-23T01:10:15.384Z,6.29
2023-12-23T01:12:55.679Z,6.29
2023-12-23T01:15:35.367Z,6.30
2023-12-23T01:18:15.221Z,6.28
2023-12-23T01:20:56.818Z,6.31
2023-12-23T01:23:36.335Z,6.32
2023-12-23T01:26:16.016Z,6.33
2023-12-23T01:29:01.580Z,6.35
2023-12-23T01:31:41.204Z,6.37
2023-12-23T01:34:20.723Z,6.37
2023-12-23T01:37:00.934Z,6.38
2023-12-23T01:39:41.042Z,6.38
2023-12-23T01:42:20.605Z,6.40
2023-12-23T01:45:00.245Z,6.40
2023-12-23T01:47:45.910Z,6.40
2023-12-23T01:50:28.730Z,6.42
2023-12-23T01:53:08.667Z,6.43
2023-12-23T01:55:48.658Z,6.44
2023-12-23T01:58:28.360Z,6.44
2023-12-23T02:01:08.180Z,6.45
2023-12-23T02:03:48.582Z,6.46
2023-12-23T02:06:28.092Z,6.44
2023-12-23T02:09:08.165Z,6.43
2023-12-23T02:12:11.454Z,6.43
2023-12-23T02:15:05.983Z,6.41
2023-12-23T02:17:45.864Z,6.44
2023-12-23T02:20:25.501Z,6.46
2023-12-23T02:23:05.878Z,6.47
2023-12-23T02:25:51.101Z,6.48
2023-12-23T02:28:30.984Z,6.50
2023-12-23T02:31:12.666Z,6.51
2023-12-23T02:33:52.495Z,6.54
2023-12-23T02:36:33.967Z,6.54
2023-12-23T02:39:15.445Z,6.57
2023-12-23T02:41:53.179Z,6.63
2023-12-23T02:44:32.865Z,6.68
2023-12-23T02:47:13.097Z,6.71
2023-12-23T02:49:52.664Z,6.75
2023-12-23T02:52:32.780Z,6.78
2023-12-23T02:55:12.413Z,6.85
2023-12-23T02:57:51.927Z,6.93
2023-12-23T03:00:32.207Z,7.05
2023-12-23T03:03:11.846Z,7.14
2023-12-23T03:05:51.814Z,7.31
2023-12-23T03:08:31.773Z,7.46
2023-12-23T03:11:11.719Z,7.58
2023-12-23T03:13:53.208Z,7.65
2023-12-23T03:16:35.719Z,7.71
2023-12-23T03:19:15.012Z,7.76
2023-12-23T03:21:54.579Z,7.80
2023-12-23T03:24:34.158Z,7.85
2023-12-23T03:27:13.782Z,7.85
2023-12-23T03:29:53.485Z,7.87
2023-12-23T03:32:33.584Z,7.94
2023-12-23T03:35:13.722Z,7.95
2023-12-23T03:37:53.384Z,7.98
2023-12-23T03:40:32.887Z,8.04
2023-12-23T03:43:12.976Z,8.05
2023-12-23T03:45:52.753Z,8.07
2023-12-23T03:48:34.576Z,8.14
2023-12-23T03:51:14.274Z,8.18
2023-12-23T03:53:53.834Z,8.19
2023-12-23T03:56:33.917Z,8.18
2023-12-23T03:59:14.359Z,8.19
2023-12-23T04:01:54.003Z,8.23
2023-12-23T04:04:38.480Z,8.28
2023-12-23T04:07:18.149Z,8.30
2023-12-23T04:09:57.828Z,8.30
2023-12-23T04:12:38.006Z,8.33
2023-12-23T04:15:17.706Z,8.31
2023-12-23T04:17:57.540Z,8.32
2023-12-23T04:20:38.374Z,8.33
2023-12-23T04:23:18.051Z,8.33
2023-12-23T04:25:57.661Z,8.33
2023-12-23T04:28:40.282Z,8.36
2023-12-23T04:31:20.021Z,8.43
2023-12-23T04:34:00.238Z,8.43
2023-12-23T04:36:40.280Z,8.48
2023-12-23T04:39:20.004Z,8.51
2023-12-23T04:44:39.849Z,8.50
2023-12-23T04:47:19.699Z,8.51
2023-12-23T04:49:59.299Z,8.53
2023-12-23T04:52:38.887Z,8.53
2023-12-23T04:55:18.567Z,8.55
2023-12-23T04:57:59.170Z,8.61
2023-12-23T05:00:38.714Z,8.62
2023-12-23T05:03:18.963Z,8.63
2023-12-23T05:05:58.630Z,8.63
2023-12-23T05:08:38.856Z,8.61
2023-12-23T05:11:18.653Z,8.62
2023-12-23T05:13:58.166Z,8.66
2023-12-23T05:16:37.909Z,8.69
2023-12-23T05:19:17.238Z,8.72
2023-12-23T05:21:59.436Z,8.71
2023-12-23T05:24:39.395Z,8.71
2023-12-23T05:27:19.168Z,8.67
2023-12-23T05:29:59.005Z,8.63
2023-12-23T05:32:38.867Z,8.58
2023-12-23T05:35:18.543Z,8.52
2023-12-23T05:38:00.587Z,8.48
2023-12-23T05:40:40.787Z,8.47
2023-12-23T05:43:21.053Z,8.45
2023-12-23T05:46:00.607Z,8.45
2023-12-23T05:48:40.454Z,8.47
2023-12-23T05:51:20.069Z,8.48
2023-12-23T05:53:59.631Z,8.45
2023-12-23T05:56:39.278Z,8.46
2023-12-23T05:59:19.031Z,8.41
2023-12-23T06:01:58.902Z,8.37
2023-12-23T06:04:39.109Z,8.32
2023-12-23T06:07:18.789Z,8.30
2023-12-23T06:09:58.640Z,8.29
2023-12-23T06:12:38.091Z,8.33
2023-12-23T06:15:18.683Z,8.32
2023-12-23T06:18:04.103Z,8.30
2023-12-23T06:20:43.555Z,8.29
2023-12-23T06:23:23.518Z,8.30
2023-12-23T06:26:06.262Z,8.30
2023-12-23T06:28:46.362Z,8.30
2023-12-23T06:31:26.019Z,8.30
2023-12-23T06:34:05.776Z,8.33
2023-12-23T06:36:45.132Z,8.36
2023-12-23T06:39:25.656Z,8.33
2023-12-23T06:42:05.330Z,8.31
2023-12-23T06:44:45.023Z,8.34
2023-12-23T06:47:24.832Z,8.31
2023-12-23T06:50:04.376Z,8.31
2023-12-23T06:52:43.910Z,8.37
2023-12-23T06:55:23.607Z,8.38
2023-12-23T06:58:03.194Z,8.40
2023-12-23T07:00:42.692Z,8.41
2023-12-23T07:03:22.953Z,8.46
2023-12-23T07:06:02.809Z,8.48
2023-12-23T07:08:42.645Z,8.48
2023-12-23T07:11:22.318Z,8.49
2023-12-23T07:14:02.185Z,8.53
2023-12-23T07:16:43.352Z,8.55
2023-12-23T07:19:23.119Z,8.56
2023-12-23T07:22:03.988Z,8.58
2023-12-23T07:24:43.622Z,8.62
2023-12-23T07:27:23.475Z,8.70
2023-12-23T07:30:04.707Z,8.75
2023-12-23T07:32:44.527Z,8.78
2023-12-23T07:35:24.824Z,8.80
2023-12-23T07:38:04.514Z,8.88
2023-12-23T07:40:44.117Z,8.91
2023-12-23T07:43:24.889Z,9.01
2023-12-23T07:46:07.033Z,9.00
2023-12-23T07:48:46.788Z,9.02
2023-12-23T07:51:26.505Z,9.02
2023-12-23T07:54:06.602Z,9.02
2023-12-23T07:56:46.273Z,9.02
2023-12-23T07:59:26.070Z,9.01
2023-12-23T08:02:06.018Z,9.00
2023-12-23T08:04:46.185Z,9.02
2023-12-23T08:07:25.886Z,9.04
2023-12-23T08:10:06.875Z,9.09
2023-12-23T08:12:47.153Z,9.07
2023-12-23T08:15:26.956Z,9.08
2023-12-23T08:18:07.362Z,9.07
2023-12-23T08:20:47.399Z,9.10
2023-12-23T08:23:27.161Z,9.13
2023-12-23T08:26:07.048Z,9.12
2023-12-23T08:28:47.296Z,9.14
2023-12-23T08:31:26.921Z,9.15
2023-12-23T08:34:06.722Z,9.20
2023-12-23T08:36:46.380Z,9.24
2023-12-23T08:39:26.198Z,9.27
2023-12-23T08:42:06.555Z,9.31
2023-12-23T08:44:47.231Z,9.29
2023-12-23T08:47:27.347Z,9.28
2023-12-23T08:50:07.575Z,9.31
2023-12-23T08:52:47.332Z,9.37
2023-12-23T08:55:26.935Z,9.37
2023-12-23T08:58:06.755Z,9.40
2023-12-23T09:00:47.102Z,9.41
2023-12-23T09:03:28.423Z,9.41
2023-12-23T09:06:08.685Z,9.46
2023-12-23T09:08:49.667Z,9.47
2023-12-23T09:11:31.882Z,9.46
2023-12-23T09:14:13.846Z,9.49
2023-12-23T09:16:53.472Z,9.51
2023-12-23T09:19:35.166Z,9.49
2023-12-23T09:22:14.780Z,9.54
2023-12-23T09:24:54.343Z,9.56
2023-12-23T09:27:34.051Z,9.59
2023-12-23T09:30:14.103Z,9.63
2023-12-23T09:32:53.689Z,9.64
2023-12-23T09:35:33.139Z,9.66
2023-12-23T09:38:12.997Z,9.66
2023-12-23T09:40:52.603Z,9.66
2023-12-23T09:43:34.248Z,9.72
2023-12-23T09:46:18.830Z,9.71
2023-12-23T09:48:58.548Z,9.77
2023-12-23T09:51:38.168Z,9.76
2023-12-23T09:54:24.315Z,9.81
2023-12-23T09:57:04.263Z,9.81
2023-12-23T09:59:43.799Z,9.81
2023-12-23T10:02:23.378Z,9.83
2023-12-23T10:05:02.953Z,9.83
2023-12-23T10:07:42.518Z,9.82
2023-12-23T10:10:22.160Z,9.84
2023-12-23T10:13:01.892Z,9.85
2023-12-23T10:15:42.546Z,9.88
2023-12-23T10:18:22.257Z,9.87
2023-12-23T10:21:01.851Z,9.88
2023-12-23T10:23:41.475Z,9.91
2023-12-23T10:26:21.167Z,9.96
2023-12-23T10:29:07.023Z,9.96
2023-12-23T10:31:52.032Z,10.01
2023-12-23T10:34:46.496Z,10.02
2023-12-23T10:37:26.853Z,10.01
2023-12-23T10:40:29.418Z,10.07
2023-12-23T10:43:10.075Z,10.10
2023-12-23T10:45:50.883Z,10.13
2023-12-23T10:48:35.252Z,10.12
2023-12-23T10:51:15.731Z,10.13
2023-12-23T10:54:00.364Z,10.16
2023-12-23T10:56:42.068Z,10.21
2023-12-23T10:59:22.954Z,10.19
2023-12-23T11:02:16.890Z,10.22
2023-12-23T11:04:58.907Z,10.23
2023-12-23T11:07:49.157Z,10.26
2023-12-23T11:10:31.870Z,10.26
2023-12-23T11:13:11.573Z,10.29
2023-12-23T11:15:51.249Z,10.31
2023-12-23T11:18:30.943Z,10.32
2023-12-23T11:21:18.982Z,10.35
2023-12-23T11:24:01.024Z,10.38
2023-12-23T11:26:39.209Z,10.41
2023-12-23T11:29:22.731Z,10.42
2023-12-23T11:32:15.184Z,10.42
2023-12-23T11:34:54.598Z,10.43
2023-12-23T11:37:55.815Z,10.48
2023-12-23T11:40:35.470Z,10.50
2023-12-23T11:43:16.617Z,10.54
2023-12-23T11:45:56.302Z,10.57
2023-12-23T11:48:36.007Z,10.57
2023-12-23T11:51:16.327Z,10.59
2023-12-23T11:53:59.275Z,10.63
2023-12-23T11:56:36.274Z,10.70
2023-12-23T11:59:16.001Z,10.76
2023-12-23T12:01:55.597Z,10.80
2023-12-23T12:04:35.566Z,10.81
2023-12-23T12:07:15.450Z,10.84
2023-12-23T12:09:55.096Z,10.88
2023-12-23T12:12:34.781Z,10.90
2023-12-23T12:15:15.485Z,10.88
2023-12-23T12:17:55.429Z,10.85
2023-12-23T12:20:34.861Z,10.80
2023-12-23T12:23:14.681Z,10.75
2023-12-23T12:25:59.230Z,10.77
2023-12-23T12:28:38.873Z,10.75
2023-12-23T12:31:19.998Z,10.74
2023-12-23T12:34:00.767Z,10.74
2023-12-23T12:36:40.731Z,10.71
2023-12-23T12:39:24.628Z,10.69
2023-12-23T12:42:05.402Z,10.67
2023-12-23T12:44:45.060Z,10.67
2023-12-23T12:47:27.865Z,10.63
2023-12-23T12:50:09.368Z,10.59
2023-12-23T12:52:51.582Z,10.54
2023-12-23T12:55:30.999Z,10.51
2023-12-23T12:58:10.632Z,10.49
2023-12-23T13:00:51.828Z,10.46
2023-12-23T13:03:35.360Z,10.47
2023-12-23T13:06:15.358Z,10.47
2023-12-23T13:08:55.561Z,10.47
2023-12-23T13:11:36.492Z,10.52
2023-12-23T13:14:16.321Z,10.55
2023-12-23T13:16:57.962Z,10.56
2023-12-23T13:19:40.853Z,10.57
2023-12-23T13:22:20.548Z,10.58
2023-12-23T13:25:00.530Z,10.58
2023-12-23T13:27:48.609Z,10.58
2023-12-23T13:30:37.163Z,10.59
2023-12-23T13:33:16.745Z,10.60
2023-12-23T13:35:56.424Z,10.61
2023-12-23T13:38:36.673Z,10.58
2023-12-23T13:41:21.985Z,10.58
2023-12-23T13:44:01.457Z,10.57
2023-12-23T13:46:41.148Z,10.57
2023-12-23T13:49:21.410Z,10.54
2023-12-23T13:52:00.821Z,10.54
2023-12-23T13:54:40.645Z,10.53
2023-12-23T13:57:20.564Z,10.51
2023-12-23T14:00:00.311Z,10.49
2023-12-23T14:02:39.936Z,10.44
2023-12-23T14:05:22.862Z,10.42
2023-12-23T14:08:02.583Z,10.40
2023-12-23T14:10:47.398Z,10.34
2023-12-23T14:13:25.018Z,10.37
2023-12-23T14:16:05.304Z,10.34
2023-12-23T14:18:44.889Z,10.32
2023-12-23T14:21:27.545Z,10.30
2023-12-23T14:24:07.754Z,10.28
2023-12-23T14:26:47.544Z,10.26
2023-12-23T14:29:27.248Z,10.24
2023-12-23T14:32:06.938Z,10.22
2023-12-23T14:34:49.142Z,10.19
2023-12-23T14:37:35.711Z,10.17
2023-12-23T14:40:18.606Z,10.14
2023-12-23T14:42:58.436Z,10.14
2023-12-23T14:45:39.210Z,10.14
2023-12-23T14:48:19.566Z,10.14
2023-12-23T14:50:59.113Z,10.12
2023-12-23T14:53:39.036Z,10.10
2023-12-23T14:56:18.608Z,10.10
2023-12-23T14:58:58.239Z,10.10
2023-12-23T15:01:38.124Z,10.07
2023-12-23T15:04:17.928Z,10.08
2023-12-23T15:06:57.593Z,10.09
2023-12-23T15:09:37.327Z,10.05
2023-12-23T15:12:20.221Z,10.05
2023-12-23T15:14:59.898Z,10.03
2023-12-23T15:17:40.061Z,10.03
2023-12-23T15:20:19.389Z,10.02
2023-12-23T15:22:59.114Z,10.00
2023-12-23T15:25:38.822Z,9.99
2023-12-23T15:28:18.803Z,9.97
2023-12-23T15:30:59.120Z,10.00
2023-12-23T15:33:39.548Z,9.99
2023-12-23T15:36:19.540Z,9.99
2023-12-23T15:39:01.596Z,9.99
2023-12-23T15:41:45.150Z,9.95
2023-12-23T15:44:25.406Z,9.98
2023-12-23T15:47:05.067Z,9.98
2023-12-23T15:49:45.004Z,9.96
2023-12-23T15:52:27.184Z,9.99
2023-12-23T15:55:10.398Z,9.99
2023-12-23T15:57:49.998Z,9.97
2023-12-23T16:00:30.339Z,9.96
2023-12-23T16:03:09.779Z,9.97
2023-12-23T16:05:49.965Z,9.95
2023-12-23T16:08:30.896Z,9.94
2023-12-23T16:11:10.417Z,9.92
2023-12-23T16:13:50.744Z,9.89
2023-12-23T16:16:31.468Z,9.90
2023-12-23T16:19:11.083Z,9.89
2023-12-23T16:21:52.357Z,9.90
2023-12-23T16:24:33.474Z,9.90
2023-12-23T16:27:13.419Z,9.87
2023-12-23T16:29:53.303Z,9.90
2023-12-23T16:32:33.235Z,9.89
2023-12-23T16:35:12.972Z,9.89
2023-12-23T16:37:52.670Z,9.87
2023-12-23T16:40:32.295Z,9.89
2023-12-23T16:43:12.117Z,9.88
2023-12-23T16:45:53.468Z,9.90
2023-12-23T16:48:33.702Z,9.88
2023-12-23T16:51:13.172Z,9.89
2023-12-23T16:53:53.357Z,9.90
2023-12-23T16:56:34.354Z,9.90
2023-12-23T16:59:14.222Z,9.90
2023-12-23T17:01:53.951Z,9.92
2023-12-23T17:04:33.613Z,9.91
2023-12-23T17:07:13.181Z,9.91
2023-12-23T17:09:52.748Z,9.91
2023-12-23T17:12:36.800Z,9.90
2023-12-23T17:15:15.463Z,9.88
2023-12-23T17:17:55.701Z,9.91
2023-12-23T17:20:35.444Z,9.92
2023-12-23T17:23:15.064Z,9.93
2023-12-23T17:25:55.147Z,9.91
2023-12-23T17:28:35.061Z,9.92
2023-12-23T17:31:14.674Z,9.91
2023-12-23T17:33:54.352Z,9.90
2023-12-23T17:36:33.974Z,9.92
2023-12-23T17:39:13.502Z,9.99
2023-12-23T17:41:53.749Z,10.00
2023-12-23T17:44:33.315Z,9.94
2023-12-23T17:47:14.346Z,9.96
2023-12-23T17:49:54.237Z,9.99
2023-12-23T17:52:33.915Z,10.00
2023-12-23T17:55:13.820Z,10.00
2023-12-23T17:57:53.450Z,9.97
2023-12-23T18:00:33.188Z,10.01
2023-12-23T18:03:19.023Z,10.02
2023-12-23T18:05:58.564Z,10.04
2023-12-23T18:08:38.555Z,10.04
2023-12-23T18:11:18.192Z,10.02
2023-12-23T18:13:57.873Z,10.00
2023-12-23T18:16:37.583Z,10.01
2023-12-23T18:19:17.262Z,10.00
2023-12-23T18:21:59.043Z,10.03
2023-12-23T18:24:37.605Z,10.05
2023-12-23T18:27:17.499Z,10.01
2023-12-23T18:29:57.315Z,10.05
2023-12-23T18:32:37.215Z,10.04
2023-12-23T18:35:17.063Z,10.03
2023-12-23T18:37:56.536Z,10.02
2023-12-23T18:40:39.805Z,9.96
2023-12-23T18:43:19.501Z,9.93
2023-12-23T18:45:59.315Z,9.89
2023-12-23T18:48:39.434Z,9.88
2023-12-23T18:51:19.119Z,9.88
2023-12-23T18:53:59.275Z,9.83
2023-12-23T18:56:38.942Z,9.79
2023-12-23T18:59:18.689Z,9.69
2023-12-23T19:02:02.903Z,9.63
2023-12-23T19:04:43.092Z,9.63
2023-12-23T19:07:22.598Z,9.69
2023-12-23T19:10:02.207Z,9.72
2023-12-23T19:12:41.857Z,9.75
2023-12-23T19:15:21.591Z,9.83
2023-12-23T19:18:01.397Z,9.93
2023-12-23T19:20:41.016Z,9.99
2023-12-23T19:23:21.326Z,10.04
2023-12-23T19:26:08.063Z,10.07
2023-12-23T19:28:49.242Z,10.07
2023-12-23T19:31:32.330Z,10.09
2023-12-23T19:34:10.423Z,10.10
2023-12-23T19:36:50.204Z,10.08
2023-12-23T19:39:31.735Z,10.09
2023-12-23T19:42:13.468Z,10.07
2023-12-23T19:44:53.073Z,10.06
2023-12-23T19:47:35.524Z,10.03
2023-12-23T19:50:18.575Z,10.03
2023-12-23T19:52:58.323Z,9.98
2023-12-23T19:55:38.556Z,10.03
2023-12-23T19:58:18.148Z,10.05
2023-12-23T20:00:58.856Z,10.01
2023-12-23T20:03:42.307Z,10.01
2023-12-23T20:06:22.178Z,9.96
2023-12-23T20:09:04.620Z,9.93
2023-12-23T20:11:44.204Z,9.92
2023-12-23T20:14:24.302Z,9.91
2023-12-23T20:17:04.720Z,9.85
2023-12-23T20:19:46.995Z,9.79
2023-12-23T20:22:26.829Z,9.77
2023-12-23T20:25:09.096Z,9.74
2023-12-23T20:27:48.767Z,9.69
2023-12-23T20:30:28.517Z,9.66
2023-12-23T20:33:08.770Z,9.61
2023-12-23T20:35:48.539Z,9.64
2023-12-23T20:38:29.444Z,9.69
2023-12-23T20:41:11.842Z,9.73
2023-12-23T20:43:53.834Z,9.76
2023-12-23T20:46:33.784Z,9.80
2023-12-23T20:49:13.506Z,9.78
2023-12-23T20:51:53.168Z,9.80
2023-12-23T20:54:35.087Z,9.77
2023-12-23T20:57:15.262Z,9.81
2023-12-23T20:59:55.364Z,9.81
2023-12-23T21:02:35.461Z,9.78
2023-12-23T21:05:15.347Z,9.76
2023-12-23T21:07:55.195Z,9.76
2023-12-23T21:10:37.238Z,9.75
2023-12-23T21:13:14.608Z,9.72
2023-12-23T21:15:54.296Z,9.69
2023-12-23T21:18:34.020Z,9.67
2023-12-23T21:21:14.650Z,9.65
2023-12-23T21:24:04.985Z,9.63
2023-12-23T21:26:45.607Z,9.58
2023-12-23T21:29:25.668Z,9.55
2023-12-23T21:32:06.600Z,9.52
2023-12-23T21:34:46.574Z,9.52
2023-12-23T21:37:26.034Z,9.50
2023-12-23T21:40:06.187Z,9.48
2023-12-23T21:42:45.814Z,9.52
2023-12-23T21:45:25.398Z,9.54
2023-12-23T21:48:06.103Z,9.54
2023-12-23T21:50:45.872Z,9.53
2023-12-23T21:53:25.945Z,9.55
2023-12-23T21:56:05.982Z,9.54
2023-12-23T21:58:45.763Z,9.54
2023-12-23T22:01:25.413Z,9.54
2023-12-23T22:04:05.605Z,9.53
2023-12-23T22:06:47.055Z,9.49
2023-12-23T22:09:26.937Z,9.46
2023-12-23T22:12:07.780Z,9.41
2023-12-23T22:14:48.725Z,9.34
2023-12-23T22:17:28.524Z,9.33
2023-12-23T22:20:09.030Z,9.31
2023-12-23T22:22:48.830Z,9.27
2023-12-23T22:25:28.825Z,9.19
2023-12-23T22:28:09.073Z,9.14
2023-12-23T22:30:49.293Z,9.10
2023-12-23T22:33:29.612Z,9.12
2023-12-23T22:36:11.801Z,9.15
2023-12-23T22:38:51.652Z,9.18
2023-12-23T22:41:32.744Z,9.20
2023-12-23T22:44:12.306Z,9.22
2023-12-23T22:46:52.666Z,9.23
2023-12-23T22:49:32.264Z,9.30
2023-12-23T22:52:11.813Z,9.30
2023-12-23T22:54:51.464Z,9.40
2023-12-23T22:57:32.078Z,9.42
2023-12-23T23:00:19.155Z,9.43
2023-12-23T23:03:00.891Z,9.48
2023-12-23T23:05:40.457Z,9.49
2023-12-23T23:08:20.137Z,9.52
2023-12-23T23:11:00.009Z,9.57
2023-12-23T23:13:39.737Z,9.58
2023-12-23T23:16:19.326Z,9.61
2023-12-23T23:18:59.190Z,9.63
2023-12-23T23:21:38.732Z,9.66
2023-12-23T23:24:18.349Z,9.65
2023-12-23T23:26:58.080Z,9.64
2023-12-23T23:29:38.562Z,9.67
2023-12-23T23:32:19.430Z,9.66
2023-12-23T23:35:05.155Z,9.65
2023-12-23T23:37:38.891Z,9.64
2023-12-23T23:40:18.616Z,9.65
2023-12-23T23:42:58.828Z,9.65
2023-12-23T23:45:40.713Z,9.65
2023-12-23T23:48:20.310Z,9.68
2023-12-23T23:51:04.352Z,9.71
2023-12-23T23:53:43.930Z,9.72
2023-12-23T23:56:23.704Z,9.72
2023-12-23T23:59:03.676Z,9.74
